Time;durP1;ratioP1;P1;durP2;ratioP2;P2;SDS_P1;SDS_P2;PMS_P1;PMS_P2;Temp;Humidity;BMP_temperature;BMP_pressure;BME280_temperature;BME280_humidity;BME280_pressure;Samples;Min_cycle;Max_cycle;Signal;HPM_P1;HPM_P2
2023/01/23 00:01:33;;;;;;;30.37;18.20;;;1.50;99.90;;;;;;5226452;28;20929;-49
2023/01/23 00:04:04;;;;;;;29.10;18.30;;;1.50;99.90;;;;;;5223377;28;20441;-47
2023/01/23 00:06:35;;;;;;;38.40;19.27;;;1.50;99.90;;;;;;5226335;28;20458;-47
2023/01/23 00:09:07;;;;;;;36.40;18.93;;;1.60;99.90;;;;;;5220927;28;20530;-47
2023/01/23 00:11:37;;;;;;;31.53;19.13;;;1.60;99.90;;;;;;5218087;28;20477;-47
2023/01/23 00:14:09;;;;;;;31.83;17.83;;;1.50;99.90;;;;;;5222028;28;20523;-47
2023/01/23 00:16:40;;;;;;;35.30;17.43;;;1.60;99.90;;;;;;5220542;28;20231;-47
2023/01/23 00:19:10;;;;;;;34.97;18.83;;;1.50;99.90;;;;;;5225920;28;20862;-48
2023/01/23 00:21:41;;;;;;;37.80;20.10;;;1.60;99.90;;;;;;5221112;28;20191;-48
2023/01/23 00:24:12;;;;;;;30.33;17.57;;;1.60;99.90;;;;;;5221631;28;20183;-47
2023/01/23 00:26:42;;;;;;;33.70;17.90;;;1.50;99.90;;;;;;5222542;28;20203;-48
2023/01/23 00:29:14;;;;;;;27.03;16.70;;;1.50;99.90;;;;;;5224715;28;20193;-48
2023/01/23 00:31:45;;;;;;;40.27;18.30;;;1.50;99.90;;;;;;5223449;28;20286;-49
2023/01/23 00:34:15;;;;;;;31.33;17.93;;;1.60;99.90;;;;;;5222457;28;21043;-46
2023/01/23 00:36:46;;;;;;;30.77;18.07;;;1.50;99.90;;;;;;5213258;28;20204;-48
2023/01/23 00:39:19;;;;;;;37.07;19.47;;;1.50;99.90;;;;;;5221279;28;20186;-47
2023/01/23 00:41:50;;;;;;;33.23;18.70;;;1.50;99.90;;;;;;5223338;28;20295;-48
2023/01/23 00:44:21;;;;;;;29.10;17.30;;;1.50;99.90;;;;;;5223250;28;20433;-47
2023/01/23 00:46:51;;;;;;;29.57;17.47;;;1.60;99.90;;;;;;5213566;28;20210;-48
2023/01/23 00:49:22;;;;;;;33.30;18.23;;;1.60;99.90;;;;;;5222947;28;20215;-47
2023/01/23 00:51:55;;;;;;;33.93;18.27;;;1.50;99.90;;;;;;5211232;28;20183;-47
2023/01/23 00:54:25;;;;;;;30.37;16.70;;;1.50;99.90;;;;;;5225664;28;20995;-48
2023/01/23 00:56:56;;;;;;;40.43;19.03;;;1.60;99.90;;;;;;5229708;22;20494;-50
2023/01/23 00:59:27;;;;;;;29.10;17.27;;;1.60;99.90;;;;;;5220619;28;20595;-50
2023/01/23 01:01:58;;;;;;;34.33;17.70;;;1.50;99.90;;;;;;5229405;28;20485;-52
2023/01/23 01:04:28;;;;;;;31.63;19.30;;;1.60;99.90;;;;;;5209657;28;20179;-52
2023/01/23 01:06:59;;;;;;;33.97;17.90;;;1.50;99.90;;;;;;5227489;28;20216;-49
2023/01/23 01:09:29;;;;;;;33.97;18.20;;;1.50;99.90;;;;;;5227828;28;20185;-50
2023/01/23 01:12:00;;;;;;;36.47;19.60;;;1.50;99.90;;;;;;5226275;28;20188;-50
2023/01/23 01:14:31;;;;;;;37.47;18.17;;;1.50;99.90;;;;;;5226694;28;20689;-50
2023/01/23 01:17:01;;;;;;;31.07;17.83;;;1.60;99.90;;;;;;5226558;28;20286;-52
2023/01/23 01:19:32;;;;;;;40.07;18.70;;;1.50;99.90;;;;;;5191335;28;20328;-50
2023/01/23 01:22:02;;;;;;;40.97;17.67;;;1.50;99.90;;;;;;5207729;28;20673;-49
2023/01/23 01:24:33;;;;;;;41.00;20.30;;;1.50;99.90;;;;;;5224888;28;20179;-49
2023/01/23 01:27:04;;;;;;;38.07;20.20;;;1.50;99.90;;;;;;5226183;28;20676;-50
2023/01/23 01:29:34;;;;;;;31.07;18.73;;;1.50;99.90;;;;;;5205820;28;20190;-50
2023/01/23 01:32:05;;;;;;;36.77;19.63;;;1.50;99.90;;;;;;5224321;28;20211;-50
2023/01/23 01:34:35;;;;;;;32.80;18.07;;;1.60;99.90;;;;;;5223659;28;20213;-50
2023/01/23 01:37:06;;;;;;;36.73;19.00;;;1.50;99.90;;;;;;5219791;28;20260;-49
2023/01/23 01:39:37;;;;;;;35.83;18.70;;;1.60;99.90;;;;;;5222772;28;20286;-50
2023/01/23 01:42:07;;;;;;;33.80;18.30;;;1.60;99.90;;;;;;5227270;28;20189;-50
2023/01/23 01:44:59;;;;;;;37.13;18.67;;;1.60;99.90;;;;;;5225811;28;20186;-51
2023/01/23 01:47:30;;;;;;;37.80;18.07;;;1.50;99.90;;;;;;5207622;28;20187;-52
2023/01/23 01:50:04;;;;;;;30.27;18.00;;;1.60;99.90;;;;;;5224178;28;20440;-51
2023/01/23 01:52:35;;;;;;;41.20;19.73;;;1.50;99.90;;;;;;5220252;28;20180;-50
2023/01/23 01:55:06;;;;;;;27.43;17.67;;;1.50;99.90;;;;;;5222823;28;20845;-50
2023/01/23 01:57:41;;;;;;;37.90;19.80;;;1.60;99.90;;;;;;5220062;28;20185;-51
2023/01/23 02:00:15;;;;;;;35.13;19.80;;;1.50;99.90;;;;;;5207512;28;20452;-50
2023/01/23 02:02:52;;;;;;;32.27;17.30;;;1.60;99.90;;;;;;5222965;28;20787;-50
2023/01/23 02:05:33;;;;;;;34.33;17.50;;;1.60;99.90;;;;;;5217113;28;20549;-49
2023/01/23 02:08:14;;;;;;;34.57;19.10;;;1.60;99.90;;;;;;5207798;28;20434;-51
2023/01/23 02:10:45;;;;;;;37.63;19.40;;;1.60;99.90;;;;;;5221596;28;20421;-52
2023/01/23 02:13:19;;;;;;;36.83;19.23;;;1.60;99.90;;;;;;5206351;28;20464;-49
2023/01/23 02:15:51;;;;;;;35.77;19.30;;;1.60;99.90;;;;;;5224086;28;20439;-50
2023/01/23 02:18:22;;;;;;;31.77;18.03;;;1.60;99.90;;;;;;5225594;28;20494;-50
2023/01/23 02:20:55;;;;;;;38.10;19.40;;;1.60;99.90;;;;;;5223198;28;20448;-50
2023/01/23 02:23:41;;;;;;;33.20;18.37;;;1.50;99.90;;;;;;5231863;28;20436;-50
2023/01/23 02:26:16;;;;;;;38.93;18.90;;;1.60;99.90;;;;;;5226555;28;20503;-53
2023/01/23 02:28:52;;;;;;;36.10;19.57;;;1.60;99.90;;;;;;5226358;28;20936;-50
2023/01/23 02:31:23;;;;;;;36.60;19.90;;;1.60;99.90;;;;;;5193439;28;20436;-51
2023/01/23 02:33:56;;;;;;;32.90;18.53;;;1.60;99.90;;;;;;5227658;28;20465;-49
2023/01/23 02:36:29;;;;;;;33.10;18.63;;;1.60;99.90;;;;;;5226991;28;20276;-50
2023/01/23 02:39:06;;;;;;;37.73;18.23;;;1.60;99.90;;;;;;5225390;28;20441;-51
2023/01/23 02:41:40;;;;;;;35.43;19.57;;;1.60;99.90;;;;;;5210194;28;20437;-49
2023/01/23 02:44:26;;;;;;;35.07;18.20;;;1.60;99.90;;;;;;5229476;28;20955;-50
2023/01/23 02:47:03;;;;;;;35.93;17.27;;;1.60;99.90;;;;;;5211563;28;20454;-50
2023/01/23 02:49:33;;;;;;;32.77;18.00;;;1.60;99.90;;;;;;5226826;28;20495;-50
2023/01/23 02:52:05;;;;;;;35.70;17.40;;;1.60;99.90;;;;;;5226432;28;20447;-51
2023/01/23 02:54:36;;;;;;;29.63;18.27;;;1.60;99.90;;;;;;5224172;28;20254;-50
2023/01/23 02:57:07;;;;;;;36.00;18.83;;;1.60;99.90;;;;;;5209463;28;20476;-50
2023/01/23 03:00:38;;;;;;;33.40;18.80;;;1.60;99.90;;;;;;5229617;28;20230;-50
2023/01/23 03:02:38;;;;;;;37.53;20.07;;;1.60;99.90;;;;;;5220998;28;20449;-51
2023/01/23 03:05:09;;;;;;;31.03;17.90;;;1.60;99.90;;;;;;5229678;28;20436;-50
2023/01/23 03:07:40;;;;;;;36.37;18.43;;;1.60;99.90;;;;;;5226510;28;20451;-52
2023/01/23 03:10:11;;;;;;;38.10;19.93;;;1.60;99.90;;;;;;5229965;28;20437;-48
2023/01/23 03:12:42;;;;;;;35.00;18.77;;;1.60;99.90;;;;;;5230725;28;20218;-54
2023/01/23 03:15:12;;;;;;;37.00;18.87;;;1.60;99.90;;;;;;5228596;28;20500;-50
2023/01/23 03:17:43;;;;;;;30.60;18.63;;;1.60;99.90;;;;;;5211348;28;20587;-50
2023/01/23 03:20:19;;;;;;;35.60;19.50;;;1.60;99.90;;;;;;5229741;28;20171;-50
2023/01/23 03:22:49;;;;;;;46.63;18.27;;;1.60;99.90;;;;;;5212168;28;20177;-50
2023/01/23 03:25:20;;;;;;;33.87;17.70;;;1.60;99.90;;;;;;5227025;28;20467;-51
2023/01/23 03:27:51;;;;;;;32.13;17.93;;;1.60;99.90;;;;;;5215672;28;20186;-52
2023/01/23 03:30:24;;;;;;;34.30;18.60;;;1.60;99.90;;;;;;5213495;28;20215;-51
2023/01/23 03:32:54;;;;;;;25.60;16.70;;;1.60;99.90;;;;;;5210892;28;20186;-50
2023/01/23 03:35:25;;;;;;;28.73;18.30;;;1.60;99.90;;;;;;5210553;28;20449;-53
2023/01/23 03:37:56;;;;;;;34.43;18.90;;;1.60;99.90;;;;;;5210654;28;20179;-49
2023/01/23 03:43:15;;;;;;;42.53;19.33;;;1.60;99.90;;;;;;5228623;28;20183;-49
2023/01/23 03:45:46;;;;;;;34.10;19.23;;;1.60;99.90;;;;;;5229214;28;20953;-52
2023/01/23 03:48:17;;;;;;;33.20;19.23;;;1.60;99.90;;;;;;5236586;28;20191;-50
2023/01/23 03:50:47;;;;;;;32.30;18.97;;;1.60;99.90;;;;;;5225407;28;20194;-49
2023/01/23 03:53:18;;;;;;;36.17;18.90;;;1.50;99.90;;;;;;5211555;28;20229;-50
2023/01/23 03:55:49;;;;;;;35.40;20.10;;;1.50;99.90;;;;;;5224260;28;20222;-50
2023/01/23 03:58:19;;;;;;;30.27;18.23;;;1.50;99.90;;;;;;5208777;28;20176;-50
2023/01/23 04:00:50;;;;;;;29.70;18.57;;;1.50;99.90;;;;;;5221228;28;20187;-52
2023/01/23 04:03:20;;;;;;;35.70;18.13;;;1.50;99.90;;;;;;5226238;28;20552;-50
2023/01/23 04:05:55;;;;;;;33.13;19.10;;;1.50;99.90;;;;;;5206023;28;20198;-50
2023/01/23 04:08:27;;;;;;;35.07;18.87;;;1.50;99.90;;;;;;5227213;28;20175;-48
2023/01/23 04:11:03;;;;;;;37.63;19.03;;;1.50;99.90;;;;;;5209421;28;20434;-52
2023/01/23 04:13:33;;;;;;;36.53;20.30;;;1.60;99.90;;;;;;5226446;28;20468;-52
2023/01/23 04:16:05;;;;;;;38.23;18.67;;;1.60;99.90;;;;;;5207778;28;20496;-49
2023/01/23 04:18:35;;;;;;;38.40;19.93;;;1.60;99.90;;;;;;5208505;28;20183;-49
2023/01/23 04:21:07;;;;;;;36.40;18.87;;;1.60;99.90;;;;;;5221946;28;20468;-51
2023/01/23 04:23:37;;;;;;;41.83;20.33;;;1.60;99.90;;;;;;5223966;28;20175;-52
2023/01/23 04:26:08;;;;;;;34.30;20.27;;;1.50;99.90;;;;;;5225523;28;20513;-49
2023/01/23 04:28:39;;;;;;;36.07;20.50;;;1.50;99.90;;;;;;5208930;28;20236;-51
2023/01/23 04:31:09;;;;;;;41.37;19.87;;;1.50;99.90;;;;;;5206527;28;20272;-53
2023/01/23 04:33:40;;;;;;;38.10;19.93;;;1.50;99.90;;;;;;5212931;28;20699;-50
2023/01/23 04:36:11;;;;;;;38.20;21.20;;;1.50;99.90;;;;;;5225719;28;20207;-50
2023/01/23 04:38:41;;;;;;;39.40;18.10;;;1.50;99.90;;;;;;5224897;28;20635;-53
2023/01/23 04:41:22;;;;;;;41.60;21.83;;;1.50;99.90;;;;;;5206766;28;20180;-49
2023/01/23 04:43:52;;;;;;;45.17;21.23;;;1.50;99.90;;;;;;5210090;28;20183;-48
2023/01/23 04:46:23;;;;;;;32.03;18.50;;;1.60;99.90;;;;;;5222638;28;20785;-50
2023/01/23 04:48:53;;;;;;;36.93;19.57;;;1.60;99.90;;;;;;5211550;28;20271;-50
2023/01/23 04:51:24;;;;;;;33.60;19.60;;;1.60;99.90;;;;;;5210512;28;20189;-50
2023/01/23 04:53:55;;;;;;;36.70;20.63;;;1.60;99.90;;;;;;5211111;28;20626;-49
2023/01/23 04:56:25;;;;;;;43.93;20.20;;;1.50;99.90;;;;;;5209458;28;20767;-50
2023/01/23 04:58:56;;;;;;;36.10;20.30;;;1.60;99.90;;;;;;5223528;28;20267;-51
2023/01/23 05:01:27;;;;;;;41.83;20.37;;;1.50;99.90;;;;;;5207945;28;20183;-50
2023/01/23 05:03:57;;;;;;;34.50;18.60;;;1.50;99.90;;;;;;5210818;28;20183;-50
2023/01/23 05:06:28;;;;;;;39.80;20.70;;;1.60;99.90;;;;;;5205039;28;20263;-49
2023/01/23 05:08:59;;;;;;;37.00;19.13;;;1.50;99.90;;;;;;5226121;28;20190;-49
2023/01/23 05:11:30;;;;;;;40.60;19.47;;;1.50;99.90;;;;;;5206571;28;20610;-49
2023/01/23 05:14:01;;;;;;;38.70;22.60;;;1.50;99.90;;;;;;5224059;28;20214;-51
2023/01/23 05:16:31;;;;;;;39.73;21.13;;;1.50;99.90;;;;;;5208124;28;20199;-50
2023/01/23 05:19:02;;;;;;;32.83;20.30;;;1.50;99.90;;;;;;5209176;28;20170;-49
2023/01/23 05:21:33;;;;;;;45.27;21.87;;;1.50;99.90;;;;;;5225274;28;20661;-51
2023/01/23 05:24:04;;;;;;;35.57;20.27;;;1.50;99.90;;;;;;5225412;28;20181;-52
2023/01/23 05:26:35;;;;;;;37.90;20.60;;;1.40;99.90;;;;;;5226205;28;20290;-51
2023/01/23 05:29:05;;;;;;;41.40;20.47;;;1.50;99.90;;;;;;5210017;28;20441;-49
2023/01/23 05:31:36;;;;;;;33.33;19.63;;;1.50;99.90;;;;;;5222845;28;21022;-50
2023/01/23 05:34:07;;;;;;;43.57;23.00;;;1.50;99.90;;;;;;5225662;28;20295;-50
2023/01/23 05:36:38;;;;;;;36.63;19.13;;;1.50;99.90;;;;;;5226409;28;20195;-51
2023/01/23 05:39:09;;;;;;;45.77;22.13;;;1.50;99.90;;;;;;5224996;28;20238;-52
2023/01/23 05:41:39;;;;;;;40.90;23.17;;;1.40;99.90;;;;;;5206778;28;20430;-51
2023/01/23 05:44:10;;;;;;;39.40;21.10;;;1.50;99.90;;;;;;5208309;28;20692;-49
2023/01/23 05:46:41;;;;;;;41.73;21.90;;;1.50;99.90;;;;;;5224730;28;20260;-53
2023/01/23 05:49:11;;;;;;;41.40;21.10;;;1.50;99.90;;;;;;5221352;28;20212;-54
2023/01/23 05:51:42;;;;;;;47.23;21.27;;;1.50;99.90;;;;;;5223668;28;20269;-51
2023/01/23 05:54:13;;;;;;;54.00;21.83;;;1.40;99.90;;;;;;5223897;28;20202;-52
2023/01/23 05:56:43;;;;;;;36.03;19.83;;;1.50;99.90;;;;;;5209698;28;20213;-54
2023/01/23 05:59:14;;;;;;;43.17;21.10;;;1.50;99.90;;;;;;5219662;28;20178;-50
2023/01/23 06:01:44;;;;;;;43.13;21.10;;;1.50;99.90;;;;;;5218462;28;20171;-56
2023/01/23 06:04:15;;;;;;;36.50;19.90;;;1.50;99.90;;;;;;5226722;28;20200;-51
2023/01/23 06:06:45;;;;;;;39.90;22.30;;;1.50;99.90;;;;;;5208266;28;20639;-51
2023/01/23 06:09:16;;;;;;;48.40;20.67;;;1.50;99.90;;;;;;5219033;28;20185;-50
2023/01/23 06:11:47;;;;;;;34.20;19.40;;;1.50;99.90;;;;;;5200040;28;20188;-52
2023/01/23 06:14:17;;;;;;;33.97;19.07;;;1.50;99.90;;;;;;5208158;28;20298;-51
2023/01/23 06:16:48;;;;;;;39.67;20.83;;;1.50;99.90;;;;;;5219121;28;20211;-51
2023/01/23 06:19:19;;;;;;;36.77;21.10;;;1.50;99.90;;;;;;5218814;28;20809;-51
2023/01/23 06:21:49;;;;;;;39.00;20.93;;;1.50;99.90;;;;;;5224391;28;20210;-50
2023/01/23 06:24:20;;;;;;;38.77;22.00;;;1.50;99.90;;;;;;5215048;28;20181;-49
2023/01/23 06:26:51;;;;;;;37.30;21.30;;;1.40;99.90;;;;;;5225004;28;20218;-52
2023/01/23 06:29:21;;;;;;;42.60;21.67;;;1.40;99.90;;;;;;5224605;28;20548;-52
2023/01/23 06:31:52;;;;;;;43.67;21.17;;;1.50;99.90;;;;;;5224823;28;20197;-50
2023/01/23 06:34:23;;;;;;;40.87;21.87;;;1.50;99.90;;;;;;5214406;28;20202;-53
2023/01/23 06:36:53;;;;;;;39.30;21.57;;;1.50;99.90;;;;;;5225100;28;20203;-51
2023/01/23 06:39:24;;;;;;;43.73;22.60;;;1.40;99.90;;;;;;5224635;28;20183;-53
2023/01/23 06:41:55;;;;;;;38.20;18.83;;;1.40;99.90;;;;;;5209812;28;20219;-52
2023/01/23 06:44:26;;;;;;;39.30;20.13;;;1.40;99.90;;;;;;5222605;28;20187;-50
2023/01/23 06:46:58;;;;;;;38.53;21.00;;;1.40;99.90;;;;;;5212667;28;20618;-49
2023/01/23 06:49:28;;;;;;;37.13;20.60;;;1.40;99.90;;;;;;5206388;28;20436;-54
2023/01/23 06:51:59;;;;;;;34.43;19.43;;;1.40;99.90;;;;;;5219293;28;20187;-49
2023/01/23 06:54:30;;;;;;;36.63;20.27;;;1.40;99.90;;;;;;5210223;28;20762;-49
2023/01/23 06:57:00;;;;;;;34.67;20.57;;;1.40;99.90;;;;;;5231357;22;20227;-49
2023/01/23 06:59:31;;;;;;;39.63;20.97;;;1.40;99.90;;;;;;5203429;28;20183;-49
2023/01/23 07:02:02;;;;;;;36.97;21.20;;;1.50;99.90;;;;;;5211993;28;20199;-49
2023/01/23 07:04:33;;;;;;;43.07;20.60;;;1.40;99.90;;;;;;5203023;28;20430;-48
2023/01/23 07:07:03;;;;;;;41.33;20.90;;;1.40;99.90;;;;;;5204629;28;20301;-50
2023/01/23 07:09:34;;;;;;;39.23;20.60;;;1.40;99.90;;;;;;5203392;28;20273;-48
2023/01/23 07:12:05;;;;;;;33.17;18.93;;;1.40;99.90;;;;;;5202494;28;20734;-49
2023/01/23 07:14:36;;;;;;;39.40;21.40;;;1.40;99.90;;;;;;5202724;28;21286;-49
2023/01/23 07:17:06;;;;;;;40.37;19.20;;;1.40;99.90;;;;;;5202459;28;20822;-49
2023/01/23 07:19:37;;;;;;;43.50;21.17;;;1.40;99.90;;;;;;5204759;28;20179;-51
2023/01/23 07:22:08;;;;;;;40.20;22.47;;;1.40;99.90;;;;;;5202138;28;20184;-51
2023/01/23 07:24:38;;;;;;;44.87;22.10;;;1.40;99.90;;;;;;5199389;28;20253;-48
2023/01/23 07:27:09;;;;;;;38.73;21.70;;;1.40;99.90;;;;;;5201451;28;20201;-52
2023/01/23 07:29:41;;;;;;;39.90;21.60;;;1.40;99.90;;;;;;5200935;28;20702;-52
2023/01/23 07:32:12;;;;;;;43.63;20.17;;;1.40;99.90;;;;;;5199402;28;20283;-49
2023/01/23 07:34:42;;;;;;;38.67;20.87;;;1.40;99.90;;;;;;5204179;28;20852;-48
2023/01/23 07:37:13;;;;;;;41.93;21.97;;;1.40;99.90;;;;;;5202035;28;20253;-50
2023/01/23 07:39:44;;;;;;;39.60;22.60;;;1.40;99.90;;;;;;5203286;28;20231;-47
2023/01/23 07:42:14;;;;;;;43.93;21.60;;;1.40;99.90;;;;;;5198094;28;20182;-47
2023/01/23 07:44:45;;;;;;;48.47;22.73;;;1.40;99.90;;;;;;5201368;28;20938;-48
2023/01/23 07:47:16;;;;;;;42.33;22.20;;;1.50;99.90;;;;;;5202117;28;20219;-48
2023/01/23 07:49:47;;;;;;;38.63;21.40;;;1.60;99.90;;;;;;5201025;28;20215;-48
2023/01/23 07:52:17;;;;;;;40.20;21.13;;;1.60;99.90;;;;;;5201963;28;20193;-46
2023/01/23 07:54:48;;;;;;;44.00;22.60;;;1.50;99.90;;;;;;5197099;28;20256;-47
2023/01/23 07:57:18;;;;;;;39.03;20.73;;;1.50;99.90;;;;;;5216251;28;20219;-46
2023/01/23 07:59:49;;;;;;;36.23;20.60;;;1.60;99.90;;;;;;5205200;28;20745;-46
2023/01/23 08:02:20;;;;;;;44.43;22.87;;;1.50;99.90;;;;;;5202359;28;20271;-44
2023/01/23 08:04:50;;;;;;;40.20;20.90;;;1.50;99.90;;;;;;5202155;28;20188;-45
2023/01/23 08:07:22;;;;;;;49.10;22.97;;;1.50;99.90;;;;;;5205241;28;20707;-46
2023/01/23 08:09:53;;;;;;;47.40;22.63;;;1.50;99.90;;;;;;5202941;28;20233;-47
2023/01/23 08:12:24;;;;;;;39.20;21.07;;;1.50;99.90;;;;;;5202281;28;20439;-46
2023/01/23 08:14:54;;;;;;;39.27;20.03;;;1.50;99.90;;;;;;5203089;28;20903;-48
2023/01/23 08:17:25;;;;;;;45.07;22.23;;;1.60;99.90;;;;;;5202612;28;21010;-46
2023/01/23 08:19:55;;;;;;;42.20;21.27;;;1.60;99.90;;;;;;5202572;28;20183;-46
2023/01/23 08:22:26;;;;;;;38.53;22.50;;;1.50;99.90;;;;;;5206611;28;20682;-49
2023/01/23 08:24:57;;;;;;;42.23;22.20;;;1.60;99.90;;;;;;5198901;28;20282;-46
2023/01/23 08:27:27;;;;;;;44.07;21.30;;;1.60;99.90;;;;;;5200318;28;20208;-46
2023/01/23 08:29:58;;;;;;;38.47;21.40;;;1.60;99.90;;;;;;5201688;28;20738;-47
2023/01/23 08:32:29;;;;;;;44.10;18.83;;;1.60;99.90;;;;;;5199063;28;20241;-47
2023/01/23 08:35:00;;;;;;;43.53;21.67;;;1.60;99.90;;;;;;5201465;28;20223;-46
2023/01/23 08:37:32;;;;;;;44.77;19.90;;;1.60;99.90;;;;;;5200404;28;20459;-49
2023/01/23 08:40:04;;;;;;;36.37;20.73;;;1.60;99.90;;;;;;5199504;28;20186;-47
2023/01/23 08:42:34;;;;;;;36.90;20.80;;;1.60;99.90;;;;;;5198387;28;20522;-46
2023/01/23 08:45:06;;;;;;;38.20;20.07;;;1.60;99.90;;;;;;5199936;28;20874;-47
2023/01/23 08:47:37;;;;;;;42.83;22.43;;;1.60;99.90;;;;;;5201681;28;20207;-46
2023/01/23 08:50:08;;;;;;;41.70;20.07;;;1.60;99.90;;;;;;5202606;28;20952;-46
2023/01/23 08:52:39;;;;;;;34.73;20.80;;;1.50;99.90;;;;;;5198056;28;20446;-45
2023/01/23 08:55:11;;;;;;;39.87;22.37;;;1.50;99.90;;;;;;5197887;28;20476;-48
2023/01/23 08:57:42;;;;;;;41.47;21.50;;;1.60;99.90;;;;;;5202464;28;20312;-47
2023/01/23 09:00:13;;;;;;;32.70;19.33;;;1.70;99.90;;;;;;5198570;28;20436;-47
2023/01/23 09:02:44;;;;;;;35.03;19.20;;;1.70;99.90;;;;;;5200570;28;20665;-52
2023/01/23 09:05:14;;;;;;;42.50;20.60;;;1.80;99.90;;;;;;5198527;28;20442;-47
2023/01/23 09:07:46;;;;;;;38.63;20.10;;;1.70;99.90;;;;;;5197191;28;20298;-50
2023/01/23 09:10:17;;;;;;;43.40;20.10;;;1.70;99.90;;;;;;5196425;28;20935;-50
2023/01/23 09:12:51;;;;;;;39.03;18.87;;;1.70;99.90;;;;;;5199903;28;20528;-48
2023/01/23 09:15:21;;;;;;;41.93;21.20;;;1.70;99.90;;;;;;5192965;28;20229;-46
2023/01/23 09:17:52;;;;;;;44.60;20.67;;;1.70;99.90;;;;;;5196777;28;20438;-53
2023/01/23 09:20:27;;;;;;;43.93;19.93;;;1.70;99.90;;;;;;5195392;28;20433;-49
2023/01/23 09:22:58;;;;;;;33.00;18.40;;;1.70;99.90;;;;;;5193392;28;20188;-48
2023/01/23 09:25:30;;;;;;;36.10;20.87;;;1.80;99.90;;;;;;5197113;28;21219;-49
2023/01/23 09:28:01;;;;;;;38.70;20.50;;;1.80;99.90;;;;;;5193785;28;20190;-49
2023/01/23 09:30:31;;;;;;;35.43;20.40;;;1.80;99.90;;;;;;5201479;28;20793;-48
2023/01/23 09:33:02;;;;;;;45.00;21.20;;;1.80;99.90;;;;;;5194388;28;20684;-49
2023/01/23 09:35:33;;;;;;;40.60;21.43;;;1.80;99.90;;;;;;5198541;28;20199;-48
2023/01/23 09:38:06;;;;;;;34.33;19.60;;;1.90;99.90;;;;;;5195206;28;20875;-47
2023/01/23 09:40:48;;;;;;;37.47;20.40;;;1.90;99.90;;;;;;5204380;28;20229;-46
2023/01/23 09:43:33;;;;;;;32.00;19.63;;;1.80;99.90;;;;;;5192932;28;20448;-48
2023/01/23 09:46:17;;;;;;;43.43;21.47;;;1.70;99.90;;;;;;5193085;28;20475;-46
2023/01/23 09:49:03;;;;;;;38.67;21.27;;;1.70;99.90;;;;;;5193942;28;20944;-46
2023/01/23 09:51:36;;;;;;;42.30;20.63;;;1.70;99.90;;;;;;5198256;28;21074;-47
2023/01/23 09:54:21;;;;;;;32.30;21.00;;;1.70;99.90;;;;;;5211713;28;20573;-49
2023/01/23 09:56:52;;;;;;;33.20;19.67;;;1.70;99.90;;;;;;5199378;28;20467;-49
2023/01/23 09:59:32;;;;;;;35.83;21.50;;;1.80;99.90;;;;;;5196339;28;20435;-47
2023/01/23 10:02:18;;;;;;;37.60;20.50;;;1.90;99.90;;;;;;5189737;28;20491;-49
2023/01/23 10:04:51;;;;;;;35.13;18.97;;;1.80;99.90;;;;;;5197337;28;20434;-46
2023/01/23 10:07:37;;;;;;;34.73;19.40;;;1.80;99.90;;;;;;5200370;28;20499;-46
2023/01/23 10:10:23;;;;;;;35.37;20.73;;;1.90;99.90;;;;;;5202263;28;20517;-48
2023/01/23 10:13:01;;;;;;;38.00;19.90;;;1.80;99.90;;;;;;5215565;28;20440;-50
2023/01/23 10:15:50;;;;;;;31.13;19.70;;;1.90;99.90;;;;;;5196182;28;20512;-47
2023/01/23 10:18:43;;;;;;;35.03;18.93;;;1.90;99.90;;;;;;5216498;28;20449;-46
2023/01/23 10:21:17;;;;;;;38.33;20.07;;;2.00;99.90;;;;;;5198345;28;20434;-47
2023/01/23 10:23:58;;;;;;;48.80;21.50;;;2.10;99.90;;;;;;5201392;28;20451;-47
2023/01/23 10:26:44;;;;;;;42.57;20.90;;;2.00;99.90;;;;;;5196434;28;20560;-46
2023/01/23 10:29:29;;;;;;;44.00;20.77;;;2.00;99.90;;;;;;5201457;28;20442;-48
2023/01/23 10:32:03;;;;;;;35.80;19.63;;;2.00;99.90;;;;;;5197660;28;20508;-47
2023/01/23 10:34:50;;;;;;;36.67;19.53;;;2.10;99.90;;;;;;5198131;28;20465;-49
2023/01/23 10:37:47;;;;;;;38.47;19.77;;;1.90;99.90;;;;;;5198457;28;20456;-50
2023/01/23 10:41:12;;;;;;;34.77;20.50;;;2.00;99.90;;;;;;5199192;28;20438;-49
2023/01/23 10:43:17;;;;;;;36.33;20.20;;;2.00;99.90;;;;;;5200069;28;20531;-49
2023/01/23 10:45:49;;;;;;;42.33;21.57;;;1.90;99.90;;;;;;5203722;28;20462;-48
2023/01/23 10:48:47;;;;;;;43.23;20.90;;;1.90;99.90;;;;;;5203118;28;21522;-47
2023/01/23 10:51:29;;;;;;;32.70;19.20;;;1.90;99.90;;;;;;5203178;28;20449;-47
2023/01/23 10:54:12;;;;;;;40.63;19.60;;;1.90;99.90;;;;;;5199122;28;20559;-47
2023/01/23 10:56:56;;;;;;;35.40;18.40;;;2.00;99.90;;;;;;5203219;28;20470;-48
2023/01/23 10:59:37;;;;;;;32.73;19.13;;;2.00;99.90;;;;;;5203513;28;20439;-46
2023/01/23 11:02:14;;;;;;;39.00;20.93;;;2.10;99.90;;;;;;5203086;28;20446;-49
2023/01/23 11:04:47;;;;;;;36.83;20.50;;;2.00;99.90;;;;;;5204015;28;20804;-47
2023/01/23 11:07:20;;;;;;;32.93;19.77;;;2.00;99.90;;;;;;5204519;28;20501;-48
2023/01/23 11:09:59;;;;;;;33.37;19.90;;;2.10;99.90;;;;;;5206133;28;21277;-49
2023/01/23 11:12:33;;;;;;;32.47;17.50;;;2.10;99.90;;;;;;5212371;28;20441;-47
2023/01/23 11:15:27;;;;;;;34.13;18.67;;;2.20;99.90;;;;;;5198420;28;20464;-47
2023/01/23 11:17:59;;;;;;;33.80;19.70;;;2.10;99.90;;;;;;5200437;28;20426;-49
2023/01/23 11:20:39;;;;;;;37.23;20.23;;;2.00;99.90;;;;;;5204672;28;20441;-47
2023/01/23 11:23:15;;;;;;;37.63;19.50;;;2.10;99.90;;;;;;5205283;28;20956;-48
2023/01/23 11:25:50;;;;;;;39.60;19.10;;;2.10;99.90;;;;;;5201038;28;20460;-48
2023/01/23 11:28:32;;;;;;;34.43;18.73;;;2.10;99.90;;;;;;5200786;28;20437;-48
2023/01/23 11:31:17;;;;;;;30.90;17.80;;;2.20;99.90;;;;;;5196450;28;20438;-48
2023/01/23 11:34:00;;;;;;;36.27;18.67;;;2.10;99.90;;;;;;5200591;28;20466;-45
2023/01/23 11:36:49;;;;;;;35.43;20.27;;;2.20;99.90;;;;;;5196103;28;20454;-46
2023/01/23 11:39:25;;;;;;;37.30;20.07;;;2.10;99.90;;;;;;5199646;28;20438;-52
2023/01/23 11:41:56;;;;;;;42.17;21.00;;;2.10;99.90;;;;;;5202243;28;20457;-46
2023/01/23 11:44:29;;;;;;;37.90;20.67;;;2.10;99.90;;;;;;5224925;28;20426;-48
2023/01/23 11:47:05;;;;;;;33.13;20.50;;;2.10;99.90;;;;;;5204217;28;20206;-49
2023/01/23 11:49:42;;;;;;;37.10;20.97;;;2.20;99.90;;;;;;5202612;28;20441;-48
2023/01/23 11:52:30;;;;;;;41.03;19.80;;;2.20;99.90;;;;;;5206232;28;20527;-47
2023/01/23 11:55:28;;;;;;;37.67;19.70;;;2.20;99.90;;;;;;5201573;28;20470;-47
2023/01/23 11:58:13;;;;;;;32.20;18.83;;;2.30;99.90;;;;;;5199350;28;20519;-51
2023/01/23 12:01:08;;;;;;;35.50;19.00;;;2.20;99.90;;;;;;5201463;28;20959;-46
2023/01/23 12:04:05;;;;;;;39.43;18.90;;;2.30;99.90;;;;;;5205938;28;20450;-48
2023/01/23 12:06:36;;;;;;;33.20;18.30;;;2.20;99.90;;;;;;5201170;28;20787;-48
2023/01/23 12:09:11;;;;;;;29.10;16.97;;;2.20;99.90;;;;;;5205613;28;20446;-47
2023/01/23 12:12:07;;;;;;;24.93;16.67;;;2.20;99.90;;;;;;5202714;28;20190;-48
2023/01/23 12:14:55;;;;;;;26.30;16.67;;;2.30;99.90;;;;;;5191521;28;20996;-49
2023/01/23 12:17:32;;;;;;;29.43;17.10;;;2.30;99.90;;;;;;5197526;28;20451;-50
2023/01/23 12:20:03;;;;;;;25.97;15.57;;;2.30;99.90;;;;;;5208861;28;20442;-50
2023/01/23 12:23:11;;;;;;;27.03;16.83;;;2.30;99.90;;;;;;5212630;28;20984;-48
2023/01/23 12:25:59;;;;;;;31.90;16.13;;;2.40;99.90;;;;;;5198399;28;20211;-50
2023/01/23 12:28:48;;;;;;;24.60;14.57;;;2.30;99.90;;;;;;5193757;28;21016;-50
2023/01/23 12:31:31;;;;;;;31.93;15.53;;;2.30;99.90;;;;;;5199370;28;20467;-49
2023/01/23 12:34:21;;;;;;;26.87;14.57;;;2.40;99.90;;;;;;5209010;28;20457;-50
2023/01/23 12:37:24;;;;;;;28.00;14.87;;;2.40;99.90;;;;;;5202238;28;20449;-51
2023/01/23 12:40:02;;;;;;;26.10;14.50;;;2.40;99.90;;;;;;5184707;28;21776;-48
2023/01/23 12:42:44;;;;;;;20.80;13.70;;;2.40;99.90;;;;;;5200237;28;20500;-50
2023/01/23 12:45:23;;;;;;;28.57;15.00;;;2.50;99.90;;;;;;5196614;28;20432;-47
2023/01/23 12:48:10;;;;;;;26.57;14.80;;;2.60;99.90;;;;;;5192982;28;20450;-47
2023/01/23 12:50:46;;;;;;;22.33;14.17;;;2.60;99.90;;;;;;5196723;28;20438;-47
2023/01/23 12:53:21;;;;;;;23.77;14.20;;;2.50;99.90;;;;;;5196269;28;20442;-47
2023/01/23 12:56:14;;;;;;;26.47;13.20;;;2.50;99.90;;;;;;5181253;28;22482;-48
2023/01/23 12:59:01;;;;;;;25.37;15.10;;;2.50;99.90;;;;;;5199470;28;20439;-47
2023/01/23 13:02:01;;;;;;;26.67;15.37;;;2.50;99.90;;;;;;5202869;28;20434;-48
2023/01/23 13:05:03;;;;;;;26.40;14.87;;;2.60;99.90;;;;;;5214747;28;20481;-49
2023/01/23 13:07:52;;;;;;;22.20;13.63;;;2.50;99.90;;;;;;5201670;28;20456;-47
2023/01/23 13:13:32;;;;;;;21.40;13.30;;;2.50;99.90;;;;;;5197863;28;20469;-47
2023/01/23 13:16:14;;;;;;;25.77;13.10;;;2.50;99.90;;;;;;5199626;28;20466;-48
2023/01/23 13:22:18;;;;;;;15.63;11.70;;;2.40;99.90;;;;;;5173821;28;20514;-49